Skip Navigation LinksHome page > Tools > METAR decoder Skip Navigation Links

METAR decoder

Settings

METAR

Chicago O'Hare Intl, Chicago

For information only: do not use for flight planning or navigation.
Latest weather
Observation time Monday, December 5, 2016 1:51 AM CST
Local time Monday, December 5, 2016 2:24 AM CST
Flight conditions Marginal Visual Meteorological Conditions
Winds
Wind direction West (270°)
Wind speed 12 mph
Visibility 9 mi.
Sky condition
Ceiling 1,000 ft. overcast
Cloud layer overcast 1,000 ft.
Temperature 33°F
Dewpoint 30°F
Altimeter 29.95 in.Hg
Derived measurements
Relative humidity 88%
Wind chill 24°F
Density altitude -1037 ft.
Sea-level pressure 29.97 in.Hg
Remarks
System requires maintenance.
Automated weather observing station with precipitation discriminator.
METAR KORD 050751Z 27010KT 9SM OVC010 01/M01 A2995 RMK AO2 SLP149 T00061011 $

InnerDrive.Weather 4.0.6144.1 Release CLR 4.0.30319.34209
Copyright ©2015 Inner Drive Technology. All rights reserved. Portions Copyright ©1986-2015 David Braverman.

Find weather

Site navigation


Skip Navigation Links

Place info

Page info

PayPal - The safer, easier way to pay online!

Return home.

Copyright ©2016 Inner Drive Technology. Purveyors of fine, hand-crafted computer software. Page printed 2016-12-05T08:24:22 UTC.